63VA weather

Mannboro Medical Center Heliport
Mannboro, Virginia, United States

Public forecast

Using degrees Fahrenheit for public forecast. Weather courtesy of forecast.io.

Closest aviation weather report (METAR) to Mannboro Medical Center Heliport

Closest report is Allen C Perkinson Blackstone Army Air Field, 12.5 nm (23.1 km) SSW. Retrieved 2019/12/13 04:35 UTC (16 minutes ago):

KBKT 130435Z AUTO 02003KT 10SM BKN048 00/M04 A3051 RMK AO1 T10051036

Closest aviation forecast (TAF) to Mannboro Medical Center Heliport

Closest forecast is Richmond International Airport, 28.4 nm (52.6 km) ENE. Retrieved 2019-12-13 00:27 UTC (4 hours ago):

TAF KRIC 122324Z 1300/1324 08003KT P6SM SCT300 FM130300 VRB03KT P6SM BKN070 FM130600 00000KT P6SM BKN050 FM131000 00000KT P6SM OVC035 FM131200 02003KT P6SM OVC015 FM131500 01003KT 6SM -RA OVC009